Terminal Aerodrome Forecast
Issued by NWS Melbourne, FL

Home | Current Version | Previous Version | Text Only | Print | Product List | Glossary On
Versions: 1 2 3 4 5 6 7 8 9 10 11 12 13 14 15 16 17 18 19 20 21 22 23 24 25 26 27 28 29 30 31
000
FTUS42 KMLB 041736
TAFVRB
TAF
KVRB 041736Z 0418/0518 13008KT P6SM VCSH SCT030 SCT050 OVC090
      TEMPO 0419/0422 4SM SHRA BKN025 BKN050
     FM042200 15006KT P6SM VCSH SCT025 BKN050 OVC090
     FM050300 17006KT P6SM VCSH SCT025 SCT045 BKN100
     FM051400 20004KT P6SM VCSH BKN040 OVC100=

USA.gov is the U.S. government's official web portal to all federal, state and local government web resources and services.